createdAt,value
2018-09-18T00:01:29.099Z,5.20
2018-09-18T00:04:02.336Z,5.40
2018-09-18T00:06:35.050Z,6.50
2018-09-18T00:09:09.543Z,13.67
2018-09-18T00:11:42.546Z,7.40
2018-09-18T00:14:15.652Z,6.20
2018-09-18T00:16:49.338Z,6.73
2018-09-18T00:19:22.408Z,6.27
2018-09-18T00:21:55.443Z,6.23
2018-09-18T00:24:28.604Z,11.83
2018-09-18T00:27:01.957Z,7.90
2018-09-18T00:29:35.223Z,6.47
2018-09-18T00:32:08.440Z,5.77
2018-09-18T00:34:41.501Z,6.30
2018-09-18T00:37:14.771Z,29.70
2018-09-18T00:39:47.496Z,9.33
2018-09-18T00:42:20.504Z,6.40
2018-09-18T00:44:54.916Z,8.77
2018-09-18T00:47:27.964Z,6.97
2018-09-18T00:50:01.439Z,6.90
2018-09-18T00:52:34.092Z,7.20
2018-09-18T00:55:07.164Z,8.33
2018-09-18T00:57:40.341Z,8.70
2018-09-18T01:00:13.557Z,20.80
2018-09-18T01:02:46.480Z,11.33
2018-09-18T01:05:19.400Z,7.57
2018-09-18T01:07:52.465Z,8.63
2018-09-18T01:10:25.439Z,9.37
2018-09-18T01:12:58.595Z,8.53
2018-09-18T01:15:32.454Z,10.13
2018-09-18T01:18:05.496Z,9.97
2018-09-18T01:20:38.502Z,9.63
2018-09-18T01:23:11.468Z,8.70
2018-09-18T01:25:44.219Z,7.83
2018-09-18T01:28:17.238Z,8.00
2018-09-18T01:30:50.019Z,9.67
2018-09-18T01:33:23.001Z,10.43
2018-09-18T01:35:56.048Z,14.90
2018-09-18T01:38:29.185Z,10.70
2018-09-18T01:41:02.035Z,12.90
2018-09-18T01:43:34.957Z,10.50
2018-09-18T01:46:08.711Z,9.23
2018-09-18T01:48:42.227Z,9.77
2018-09-18T01:51:15.513Z,9.00
2018-09-18T01:53:49.017Z,8.23
2018-09-18T01:56:21.977Z,7.37
2018-09-18T01:58:54.858Z,6.97
2018-09-18T02:01:27.763Z,7.23
2018-09-18T02:04:00.634Z,7.43
2018-09-18T02:06:33.640Z,9.30
2018-09-18T02:09:07.891Z,9.17
2018-09-18T02:11:40.666Z,10.27
2018-09-18T02:14:13.801Z,8.03
2018-09-18T02:16:46.764Z,8.97
2018-09-18T02:19:20.307Z,8.13
2018-09-18T02:21:53.147Z,8.77
2018-09-18T02:24:26.028Z,9.57
2018-09-18T02:26:59.105Z,8.40
2018-09-18T02:29:32.303Z,7.47
2018-09-18T02:32:05.562Z,8.27
2018-09-18T02:34:38.698Z,8.33
2018-09-18T02:37:11.456Z,7.87
2018-09-18T02:39:44.376Z,7.53
2018-09-18T02:42:17.535Z,7.27
2018-09-18T02:44:51.333Z,7.07
2018-09-18T02:47:24.704Z,6.67
2018-09-18T02:49:57.628Z,7.20
2018-09-18T02:52:30.407Z,7.40
2018-09-18T02:55:04.037Z,7.77
2018-09-18T02:57:37.174Z,10.20
2018-09-18T03:00:10.663Z,9.17
2018-09-18T03:02:43.497Z,8.77
2018-09-18T03:05:16.312Z,8.07
2018-09-18T03:07:49.756Z,8.47
2018-09-18T03:10:22.753Z,9.43
2018-09-18T03:12:55.711Z,8.53
2018-09-18T03:15:28.717Z,7.87
2018-09-18T03:18:01.765Z,8.57
2018-09-18T03:20:35.177Z,7.97
2018-09-18T03:23:08.041Z,7.83
2018-09-18T03:25:41.372Z,8.20
2018-09-18T03:31:05.095Z,9.07
2018-09-18T03:33:37.931Z,9.80
2018-09-18T03:36:11.267Z,9.23
2018-09-18T03:38:44.675Z,8.00
2018-09-18T03:41:17.749Z,6.97
2018-09-18T03:43:50.697Z,7.60
2018-09-18T03:46:24.193Z,6.73
2018-09-18T03:48:57.282Z,7.10
2018-09-18T03:51:30.184Z,7.40
2018-09-18T03:54:03.181Z,7.17
2018-09-18T03:56:36.219Z,6.77
2018-09-18T03:59:09.142Z,6.50
2018-09-18T04:01:43.497Z,7.27
2018-09-18T04:04:17.085Z,6.53
2018-09-18T04:06:50.022Z,6.63
2018-09-18T04:09:23.079Z,6.60
2018-09-18T04:11:55.993Z,6.90
2018-09-18T04:14:29.256Z,6.97
2018-09-18T04:17:02.309Z,6.17
2018-09-18T04:19:35.379Z,6.20
2018-09-18T04:22:08.337Z,6.20
2018-09-18T04:24:41.291Z,6.37
2018-09-18T04:27:14.868Z,6.37
2018-09-18T04:29:47.686Z,7.40
2018-09-18T04:32:20.727Z,6.20
2018-09-18T04:34:53.432Z,6.57
2018-09-18T04:37:26.855Z,7.93
2018-09-18T04:40:00.081Z,7.13
2018-09-18T04:42:33.112Z,7.93
2018-09-18T04:45:06.195Z,7.97
2018-09-18T04:47:39.356Z,7.00
2018-09-18T04:50:12.210Z,6.83
2018-09-18T04:52:45.363Z,6.20
2018-09-18T04:55:18.628Z,6.63
2018-09-18T04:57:51.812Z,7.20
2018-09-18T05:00:24.929Z,9.33
2018-09-18T05:02:58.403Z,7.17
2018-09-18T05:05:31.186Z,6.70
2018-09-18T05:08:04.048Z,6.60
2018-09-18T05:10:38.522Z,7.70
2018-09-18T05:13:11.603Z,7.37
2018-09-18T05:15:44.551Z,6.73
2018-09-18T05:18:17.252Z,14.17
2018-09-18T05:20:50.201Z,8.07
2018-09-18T05:23:23.043Z,13.30
2018-09-18T05:25:55.977Z,8.23
2018-09-18T05:28:28.952Z,7.20
2018-09-18T05:31:01.747Z,8.20
2018-09-18T05:33:34.704Z,8.37
2018-09-18T05:36:07.882Z,8.17
2018-09-18T05:38:40.863Z,8.50
2018-09-18T05:41:14.829Z,7.50
2018-09-18T05:43:48.068Z,7.83
2018-09-18T05:46:21.094Z,8.13
2018-09-18T05:48:54.051Z,9.97
2018-09-18T05:51:27.088Z,8.57
2018-09-18T05:54:00.121Z,8.87
2018-09-18T05:56:33.151Z,8.00
2018-09-18T05:59:06.350Z,6.63
2018-09-18T06:01:39.369Z,7.03
2018-09-18T06:04:12.310Z,6.87
2018-09-18T06:06:45.571Z,6.97
2018-09-18T06:09:18.412Z,7.17
2018-09-18T06:11:51.872Z,6.70
2018-09-18T06:14:24.693Z,5.70
2018-09-18T06:16:58.145Z,4.90
2018-09-18T06:19:31.108Z,4.90
2018-09-18T06:22:04.495Z,5.20
2018-09-18T06:24:37.247Z,4.53
2018-09-18T06:27:10.975Z,4.00
2018-09-18T06:29:43.707Z,4.40
2018-09-18T06:32:16.695Z,5.07
2018-09-18T06:34:49.574Z,4.93
2018-09-18T06:37:22.731Z,4.87
2018-09-18T06:39:55.425Z,4.97
2018-09-18T06:42:28.264Z,4.83
2018-09-18T06:45:01.305Z,5.33
2018-09-18T06:47:34.380Z,4.67
2018-09-18T06:50:07.688Z,5.03
2018-09-18T06:52:40.800Z,4.90
2018-09-18T06:55:13.876Z,5.00
2018-09-18T06:57:46.915Z,5.10
2018-09-18T07:00:20.337Z,4.57
2018-09-18T07:02:53.557Z,5.43
2018-09-18T07:05:27.279Z,4.60
2018-09-18T07:08:00.329Z,5.50
2018-09-18T07:10:33.280Z,5.40
2018-09-18T07:13:06.357Z,5.17
2018-09-18T07:15:39.225Z,5.23
2018-09-18T07:18:12.112Z,5.40
2018-09-18T07:20:45.278Z,5.50
2018-09-18T07:23:18.588Z,5.53
2018-09-18T07:25:51.566Z,5.00
2018-09-18T07:28:24.514Z,5.40
2018-09-18T07:30:57.828Z,5.30
2018-09-18T07:33:30.691Z,5.10
2018-09-18T07:36:03.793Z,4.53
2018-09-18T07:38:37.035Z,4.60
2018-09-18T07:41:09.977Z,4.70
2018-09-18T07:43:43.625Z,5.10
2018-09-18T07:46:16.560Z,5.23
2018-09-18T07:48:49.603Z,5.37
2018-09-18T07:51:22.621Z,4.83
2018-09-18T07:53:55.733Z,5.00
2018-09-18T07:56:28.680Z,5.00
2018-09-18T07:59:02.375Z,4.77
2018-09-18T08:01:35.712Z,4.30
2018-09-18T08:04:08.721Z,4.20
2018-09-18T08:06:42.281Z,3.80
2018-09-18T08:09:15.277Z,3.73
2018-09-18T08:11:48.361Z,4.33
2018-09-18T08:14:21.232Z,4.10
2018-09-18T08:16:54.276Z,4.87
2018-09-18T08:19:28.587Z,4.57
2018-09-18T08:22:01.654Z,4.77
2018-09-18T08:24:35.134Z,4.30
2018-09-18T08:27:08.353Z,4.90
2018-09-18T08:29:41.437Z,4.73
2018-09-18T08:32:14.348Z,4.87
2018-09-18T08:34:47.073Z,4.97
2018-09-18T08:37:20.103Z,5.20
2018-09-18T08:39:53.080Z,3.87
2018-09-18T08:42:26.440Z,4.00
2018-09-18T08:45:00.413Z,4.03
2018-09-18T08:47:33.863Z,4.30
2018-09-18T08:50:07.116Z,3.07
2018-09-18T08:52:40.127Z,4.00
2018-09-18T08:55:13.004Z,3.43
2018-09-18T08:57:45.859Z,3.97
2018-09-18T09:00:18.786Z,3.40
2018-09-18T09:02:51.576Z,3.80
2018-09-18T09:05:25.357Z,4.43
2018-09-18T09:07:58.404Z,4.70
2018-09-18T09:10:31.674Z,3.60
2018-09-18T09:13:04.691Z,5.87
2018-09-18T09:15:37.575Z,6.00
2018-09-18T09:18:10.876Z,5.53
2018-09-18T09:20:44.364Z,4.87
2018-09-18T09:23:17.092Z,5.17
2018-09-18T09:25:50.498Z,6.27
2018-09-18T09:28:23.649Z,5.33
2018-09-18T09:30:56.619Z,27.60
2018-09-18T09:33:29.353Z,50.73
2018-09-18T09:36:02.323Z,45.50
2018-09-18T09:38:35.138Z,31.70
2018-09-18T09:41:08.088Z,21.57
2018-09-18T09:43:40.988Z,13.60
2018-09-18T09:46:13.184Z,6.47
2018-09-18T09:48:46.305Z,7.60
2018-09-18T09:51:19.613Z,5.37
2018-09-18T09:53:52.488Z,6.27
2018-09-18T09:56:25.634Z,18.77
2018-09-18T09:58:58.479Z,33.03
2018-09-18T10:01:36.077Z,15.50
2018-09-18T10:04:09.430Z,9.83
2018-09-18T10:06:43.070Z,6.80
2018-09-18T10:09:16.016Z,5.37
2018-09-18T10:11:48.807Z,4.70
2018-09-18T10:14:21.576Z,5.20
2018-09-18T10:16:54.340Z,7.17
2018-09-18T10:19:27.188Z,6.00
2018-09-18T10:22:00.513Z,6.50
2018-09-18T10:24:33.393Z,5.40
2018-09-18T10:27:06.600Z,7.70
2018-09-18T10:29:39.448Z,7.17
2018-09-18T10:32:12.377Z,6.43
2018-09-18T10:34:45.284Z,8.20
2018-09-18T10:37:18.298Z,10.00
2018-09-18T10:39:51.250Z,24.20
2018-09-18T10:42:24.367Z,25.77
2018-09-18T10:44:58.305Z,22.87
2018-09-18T10:47:31.965Z,26.77
2018-09-18T10:50:04.695Z,21.33
2018-09-18T10:52:37.700Z,24.20
2018-09-18T10:55:10.416Z,17.13
2018-09-18T10:57:43.242Z,10.30
2018-09-18T11:00:15.984Z,8.70
2018-09-18T11:02:49.510Z,9.00
2018-09-18T11:05:22.276Z,8.80
2018-09-18T11:07:55.417Z,7.27
2018-09-18T11:10:28.266Z,8.17
2018-09-18T11:13:01.173Z,8.07
2018-09-18T11:15:34.252Z,8.23
2018-09-18T11:18:07.216Z,8.27
2018-09-18T11:20:40.228Z,9.43
2018-09-18T11:23:13.803Z,9.67
2018-09-18T11:25:46.818Z,10.17
2018-09-18T11:28:20.043Z,8.67
2018-09-18T11:30:53.265Z,8.50
2018-09-18T11:33:26.462Z,8.97
2018-09-18T11:35:59.394Z,8.97
2018-09-18T11:38:32.361Z,8.57
2018-09-18T11:41:05.092Z,9.07
2018-09-18T11:43:38.361Z,8.27
2018-09-18T11:46:11.343Z,9.93
2018-09-18T11:48:44.549Z,10.27
2018-09-18T11:51:17.588Z,10.07
2018-09-18T11:53:50.522Z,10.07
2018-09-18T11:56:23.390Z,10.60
2018-09-18T11:58:56.522Z,10.90
2018-09-18T12:01:29.343Z,10.93
2018-09-18T12:04:02.138Z,10.67
2018-09-18T12:06:34.887Z,14.23
2018-09-18T12:09:11.119Z,14.30
2018-09-18T12:11:44.461Z,12.33
2018-09-18T12:14:17.714Z,11.23
2018-09-18T12:16:50.597Z,11.13
2018-09-18T12:19:23.989Z,14.93
2018-09-18T12:21:56.958Z,12.70
2018-09-18T12:24:30.151Z,11.70
2018-09-18T12:27:02.870Z,15.70
2018-09-18T12:29:36.329Z,11.40
2018-09-18T12:32:09.407Z,9.80
2018-09-18T12:34:42.535Z,11.03
2018-09-18T12:37:15.265Z,11.73
2018-09-18T12:39:48.307Z,11.47
2018-09-18T12:42:21.225Z,12.43
2018-09-18T12:44:54.391Z,11.87
2018-09-18T12:47:27.952Z,12.00
2018-09-18T12:50:01.823Z,11.87
2018-09-18T12:52:35.234Z,12.57
2018-09-18T12:55:08.821Z,12.93
2018-09-18T12:57:41.546Z,13.33
2018-09-18T13:00:15.083Z,10.70
2018-09-18T13:02:48.557Z,10.00
2018-09-18T13:05:21.514Z,10.70
2018-09-18T13:07:54.380Z,10.70
2018-09-18T13:10:28.329Z,8.83
2018-09-18T13:13:01.071Z,8.60
2018-09-18T13:15:34.040Z,8.33
2018-09-18T13:18:06.841Z,9.77
2018-09-18T13:20:39.712Z,9.43
2018-09-18T13:23:13.234Z,10.07
2018-09-18T13:25:46.165Z,13.53
2018-09-18T13:28:19.394Z,14.53
2018-09-18T13:30:52.815Z,13.50
2018-09-18T13:33:25.732Z,13.10
2018-09-18T13:35:58.790Z,14.20
2018-09-18T13:38:31.526Z,13.53
2018-09-18T13:41:04.779Z,11.63
2018-09-18T13:43:38.154Z,10.20
2018-09-18T13:46:11.832Z,11.77
2018-09-18T13:48:44.906Z,12.83
2018-09-18T13:51:19.353Z,9.40
2018-09-18T13:53:52.676Z,9.90
2018-09-18T13:56:25.900Z,10.50
2018-09-18T13:58:58.931Z,9.30
2018-09-18T14:01:33.189Z,9.00
2018-09-18T14:04:05.994Z,8.77
2018-09-18T14:06:39.650Z,10.10
2018-09-18T14:09:14.051Z,8.30
2018-09-18T14:11:47.310Z,7.87
2018-09-18T14:14:21.127Z,8.23
2018-09-18T14:16:55.218Z,8.63
2018-09-18T14:19:28.139Z,7.07
2018-09-18T14:22:01.217Z,6.80
2018-09-18T14:24:35.098Z,8.13
2018-09-18T14:27:10.050Z,7.17
2018-09-18T14:29:43.135Z,7.03
2018-09-18T14:32:17.597Z,7.73
2018-09-18T14:34:51.157Z,7.27
2018-09-18T14:37:24.163Z,8.50
2018-09-18T14:39:57.280Z,9.10
2018-09-18T14:42:32.799Z,7.07
2018-09-18T14:45:05.872Z,7.40
2018-09-18T14:47:39.817Z,7.90
2018-09-18T14:50:13.167Z,6.20
2018-09-18T14:52:48.914Z,6.35
2018-09-18T14:55:22.727Z,5.57
2018-09-18T14:57:55.959Z,7.25
2018-09-18T15:00:29.560Z,7.42
2018-09-18T15:03:05.652Z,6.08
2018-09-18T15:05:38.525Z,6.65
2018-09-18T15:08:11.557Z,5.83
2018-09-18T15:10:44.716Z,8.28
2018-09-18T15:13:22.181Z,6.90
2018-09-18T15:15:56.670Z,8.63
2018-09-18T15:18:30.073Z,5.50
2018-09-18T15:21:02.909Z,5.55
2018-09-18T15:23:36.248Z,4.60
2018-09-18T15:26:10.360Z,5.90
2018-09-18T15:28:44.197Z,5.45
2018-09-18T15:31:17.540Z,7.35
2018-09-18T15:33:51.091Z,5.50
2018-09-18T15:36:24.961Z,11.15
2018-09-18T15:38:58.194Z,14.25
2018-09-18T15:41:30.959Z,9.23
2018-09-18T15:44:04.491Z,7.85
2018-09-18T15:46:38.039Z,7.53
2018-09-18T15:49:11.112Z,12.07
2018-09-18T15:51:44.398Z,5.55
2018-09-18T15:54:17.464Z,9.30
2018-09-18T15:56:50.239Z,12.40
2018-09-18T15:59:23.540Z,5.47
2018-09-18T16:01:56.978Z,7.05
2018-09-18T16:04:30.550Z,5.72
2018-09-18T16:07:05.522Z,7.50
2018-09-18T16:09:39.376Z,13.22
2018-09-18T16:12:12.321Z,9.43
2018-09-18T16:14:46.942Z,8.03
2018-09-18T16:17:22.103Z,10.32
2018-09-18T16:19:55.629Z,7.10
2018-09-18T16:22:30.301Z,6.80
2018-09-18T16:25:03.171Z,6.23
2018-09-18T16:27:35.896Z,5.70
2018-09-18T16:30:08.973Z,6.50
2018-09-18T16:32:42.174Z,5.60
2018-09-18T16:35:15.297Z,6.60
2018-09-18T16:37:48.708Z,6.13
2018-09-18T16:40:21.865Z,4.90
2018-09-18T16:42:56.855Z,5.83
2018-09-18T16:45:30.393Z,6.10
2018-09-18T16:48:04.803Z,6.12
2018-09-18T16:50:38.070Z,6.00
2018-09-18T16:53:11.899Z,7.53
2018-09-18T16:55:45.662Z,6.80
2018-09-18T16:58:19.754Z,4.65
2018-09-18T17:00:52.651Z,6.15
2018-09-18T17:03:25.854Z,5.05
2018-09-18T17:06:00.749Z,5.72
2018-09-18T17:08:34.110Z,4.30
2018-09-18T17:11:07.347Z,5.37
2018-09-18T17:13:40.831Z,4.62
2018-09-18T17:16:14.472Z,15.48
2018-09-18T17:18:48.000Z,5.22
2018-09-18T17:21:24.447Z,5.42
2018-09-18T17:23:57.251Z,5.87
2018-09-18T17:26:32.108Z,6.12
2018-09-18T17:29:05.972Z,8.03
2018-09-18T17:31:39.227Z,10.90
2018-09-18T17:34:12.955Z,5.87
2018-09-18T17:36:46.216Z,9.55
2018-09-18T17:39:19.006Z,9.73
2018-09-18T17:41:52.455Z,3.52
2018-09-18T17:44:26.973Z,7.92
2018-09-18T17:47:02.801Z,4.22
2018-09-18T17:49:35.586Z,3.30
2018-09-18T17:52:09.674Z,4.95
2018-09-18T17:54:42.694Z,5.30
2018-09-18T17:57:16.348Z,4.17
2018-09-18T17:59:50.185Z,4.75
2018-09-18T18:02:24.336Z,4.67
2018-09-18T18:04:57.700Z,4.50
2018-09-18T18:07:33.760Z,4.62
2018-09-18T18:10:07.532Z,4.35
2018-09-18T18:12:41.675Z,3.45
2018-09-18T18:15:14.635Z,5.72
2018-09-18T18:17:50.528Z,4.45
2018-09-18T18:20:24.813Z,4.30
2018-09-18T18:22:57.793Z,3.47
2018-09-18T18:25:30.694Z,2.80
2018-09-18T18:28:04.004Z,4.05
2018-09-18T18:30:38.436Z,4.75
2018-09-18T18:33:13.204Z,4.50
2018-09-18T18:35:46.435Z,3.35
2018-09-18T18:38:20.048Z,3.80
2018-09-18T18:40:54.706Z,3.30
2018-09-18T18:43:31.603Z,5.20
2018-09-18T18:46:05.209Z,5.22
2018-09-18T18:48:40.552Z,4.10
2018-09-18T18:51:13.380Z,3.90
2018-09-18T18:53:48.018Z,6.70
2018-09-18T18:56:21.217Z,3.60
2018-09-18T18:58:54.596Z,3.35
2018-09-18T19:01:28.308Z,4.20
2018-09-18T19:04:01.929Z,3.70
2018-09-18T19:06:36.332Z,3.52
2018-09-18T19:09:10.812Z,6.30
2018-09-18T19:11:44.730Z,4.42
2018-09-18T19:14:17.526Z,3.52
2018-09-18T19:16:50.333Z,4.65
2018-09-18T19:19:23.567Z,9.05
2018-09-18T19:21:56.324Z,5.28
2018-09-18T19:24:29.343Z,4.55
2018-09-18T19:27:02.205Z,6.08
2018-09-18T19:29:36.505Z,5.92
2018-09-18T19:32:09.604Z,4.35
2018-09-18T19:34:42.465Z,3.72
2018-09-18T19:37:17.691Z,3.55
2018-09-18T19:39:52.656Z,5.30
2018-09-18T19:42:26.772Z,4.20
2018-09-18T19:44:59.977Z,4.70
2018-09-18T19:47:34.054Z,4.70
2018-09-18T19:50:08.328Z,3.70
2018-09-18T19:52:41.433Z,3.50
2018-09-18T19:55:16.616Z,3.67
2018-09-18T19:57:50.010Z,3.65
2018-09-18T20:00:22.884Z,5.17
2018-09-18T20:02:55.747Z,3.95
2018-09-18T20:05:29.128Z,3.50
2018-09-18T20:08:02.161Z,5.00
2018-09-18T20:10:36.497Z,5.12
2018-09-18T20:13:10.686Z,4.47
2018-09-18T20:15:44.178Z,4.75
2018-09-18T20:18:18.074Z,3.45
2018-09-18T20:20:56.408Z,4.25
2018-09-18T20:23:31.157Z,4.20
2018-09-18T20:26:04.821Z,3.83
2018-09-18T20:28:39.294Z,5.12
2018-09-18T20:31:12.701Z,4.80
2018-09-18T20:33:46.744Z,6.17
2018-09-18T20:36:20.739Z,4.25
2018-09-18T20:38:54.190Z,6.22
2018-09-18T20:41:27.390Z,7.50
2018-09-18T20:44:05.597Z,5.00
2018-09-18T20:46:39.517Z,7.70
2018-09-18T20:49:12.481Z,3.75
2018-09-18T20:51:45.265Z,5.40
2018-09-18T20:54:21.302Z,3.60
2018-09-18T20:56:57.377Z,3.12
2018-09-18T20:59:30.574Z,3.83
2018-09-18T21:02:05.069Z,3.62
2018-09-18T21:04:42.095Z,5.37
2018-09-18T21:07:17.100Z,3.50
2018-09-18T21:09:50.910Z,5.80
2018-09-18T21:12:25.633Z,6.05
2018-09-18T21:14:59.384Z,4.35
2018-09-18T21:17:34.247Z,3.98
2018-09-18T21:20:10.122Z,4.00
2018-09-18T21:22:43.133Z,3.98
2018-09-18T21:25:20.422Z,6.00
2018-09-18T21:27:53.443Z,4.20
2018-09-18T21:30:31.749Z,4.45
2018-09-18T21:33:06.193Z,3.37
2018-09-18T21:35:39.451Z,5.00
2018-09-18T21:38:19.823Z,7.62
2018-09-18T21:40:53.662Z,3.22
2018-09-18T21:43:27.142Z,4.45
2018-09-18T21:46:00.765Z,4.33
2018-09-18T21:48:34.156Z,4.10
2018-09-18T21:51:07.076Z,3.50
2018-09-18T21:53:41.570Z,4.80
2018-09-18T21:56:15.819Z,4.70
2018-09-18T21:58:48.703Z,4.20
2018-09-18T22:01:23.589Z,3.47
2018-09-18T22:03:57.776Z,4.53
2018-09-18T22:06:31.038Z,5.58
2018-09-18T22:09:04.707Z,4.25
2018-09-18T22:11:37.680Z,4.08
2018-09-18T22:14:12.415Z,4.15
2018-09-18T22:16:46.027Z,3.75
2018-09-18T22:19:19.604Z,4.20
2018-09-18T22:21:54.150Z,3.72
2018-09-18T22:24:28.549Z,3.95
2018-09-18T22:27:01.932Z,4.78
2018-09-18T22:29:35.316Z,4.17
2018-09-18T22:32:10.719Z,4.55
2018-09-18T22:34:43.877Z,3.58
2018-09-18T22:37:19.494Z,3.85
2018-09-18T22:39:53.339Z,4.83
2018-09-18T22:42:26.374Z,5.40
2018-09-18T22:45:01.193Z,4.95
2018-09-18T22:47:34.093Z,4.47
2018-09-18T22:50:07.637Z,5.08
2018-09-18T22:52:41.528Z,4.72
2018-09-18T22:55:14.542Z,4.47
2018-09-18T22:57:48.932Z,4.65
2018-09-18T23:00:22.208Z,4.55
2018-09-18T23:02:55.920Z,7.00
2018-09-18T23:05:34.898Z,4.78
2018-09-18T23:08:13.490Z,4.47
2018-09-18T23:10:47.342Z,6.70
2018-09-18T23:13:22.165Z,6.10
2018-09-18T23:15:56.492Z,6.58
2018-09-18T23:18:29.557Z,5.05
2018-09-18T23:21:04.081Z,4.50
2018-09-18T23:23:37.395Z,6.87
2018-09-18T23:26:10.895Z,5.47
2018-09-18T23:28:45.167Z,5.70
2018-09-18T23:31:18.348Z,16.23
2018-09-18T23:33:58.892Z,8.55
2018-09-18T23:36:33.172Z,10.23
2018-09-18T23:39:07.708Z,13.70
2018-09-18T23:41:42.092Z,5.65
2018-09-18T23:44:16.048Z,7.03
2018-09-18T23:46:49.488Z,6.33
2018-09-18T23:49:25.678Z,6.70
2018-09-18T23:51:58.686Z,5.53
2018-09-18T23:54:32.747Z,6.23
2018-09-18T23:57:07.227Z,6.27
2018-09-18T23:59:45.799Z,6.67
